Terminal Aerodrome Forecast
Issued by NWS

Home | Current Version | Previous Version | Text Only | Print | Product List | Glossary On
Versions: 1 2 3 4 5 6 7 8 9 10 11 12 13 14 15 16 17 18 19 20 21
000
FTUS43 KAPX 182000 AAB
TAFPLN
TAF AMD
KPLN 182049Z 1821/1918 31011G19KT P6SM BKN028
     FM182200 31012KT P6SM SCT035
     FM190000 32004KT P6SM SCT200
     FM190900 00000KT 2SM BR BKN200
     FM191300 11008KT P6SM BKN120=

USA.gov is the U.S. government's official web portal to all federal, state and local government web resources and services.